UAKK

Sary-Arka Airport

Airport
ICAO code
UAKK
IATA Code
KGF
Summary
ICAO Region
APAC
ICAO Territory
Location

Karaganda,

Serving
Karaganda
Elevation
1765 ft
Coordinates
49° 40' 15" N , 73° 20' 4" E
Metar
UAKK 181300Z 24002MPS 9999 BKN050CB 17/14 Q1006 NOSIG RMK QFE708/0944

Description

Sary-Arka Airport is the airport of Karagandy, Kazakhstan. It is located 24 km southeast of the city.

Runways

Designator Length Width Surface Rops
5/23 3301 60 CON Yes/Yes

Airport map

Aerial View

SKYbrary Partners:

Safety knowledge contributed by: